Time;durP1;ratioP1;P1;durP2;ratioP2;P2;SDS_P1;SDS_P2;PMS_P1;PMS_P2;Temp;Humidity;BMP_temperature;BMP_pressure;BME280_temperature;BME280_humidity;BME280_pressure;Samples;Min_cycle;Max_cycle;Signal;HPM_P1;HPM_P2
2022/12/05 00:02:17;;;;;;;9.70;5.00;;;;;;;;;;5108977;28;20032;-78
2022/12/05 00:04:43;;;;;;;6.33;4.13;;;;;;;;;;5092913;28;20022;-78
2022/12/05 00:07:08;;;;;;;6.83;4.27;;;;;;;;;;5093433;28;20026;-78
2022/12/05 00:09:34;;;;;;;9.63;5.27;;;;;;;;;;5094010;28;20016;-77
2022/12/05 00:12:00;;;;;;;7.43;4.63;;;;;;;;;;5094334;28;20077;-78
2022/12/05 00:14:25;;;;;;;11.07;4.97;;;;;;;;;;5109806;28;20020;-80
2022/12/05 00:16:51;;;;;;;8.30;5.00;;;;;;;;;;5092587;28;20016;-74
2022/12/05 00:19:16;;;;;;;9.43;5.17;;;;;;;;;;5094134;28;20139;-78
2022/12/05 00:21:42;;;;;;;6.13;4.20;;;;;;;;;;5093975;28;20065;-78
2022/12/05 00:24:10;;;;;;;8.10;4.73;;;;;;;;;;5093380;28;20012;-78
2022/12/05 00:26:35;;;;;;;8.13;4.60;;;;;;;;;;5093886;28;20023;-77
2022/12/05 00:29:01;;;;;;;7.07;4.30;;;;;;;;;;5109307;28;20448;-78
2022/12/05 00:31:27;;;;;;;6.77;3.83;;;;;;;;;;5109454;28;20016;-73
2022/12/05 00:33:53;;;;;;;7.37;4.37;;;;;;;;;;5109620;28;20016;-78
2022/12/05 00:36:18;;;;;;;7.80;4.00;;;;;;;;;;5109380;28;20020;-79
2022/12/05 00:38:44;;;;;;;8.73;4.20;;;;;;;;;;5092976;28;20085;-74
2022/12/05 00:41:11;;;;;;;5.13;3.97;;;;;;;;;;5091769;28;20095;-75
2022/12/05 00:43:36;;;;;;;8.90;3.93;;;;;;;;;;5108561;28;20023;-76
2022/12/05 00:46:02;;;;;;;5.97;3.97;;;;;;;;;;5108239;28;20495;-77
2022/12/05 00:48:28;;;;;;;5.37;3.67;;;;;;;;;;5108316;28;20012;-76
2022/12/05 00:51:22;;;;;;;6.67;4.43;;;;;;;;;;5092228;28;20494;-78
2022/12/05 00:53:48;;;;;;;10.67;4.53;;;;;;;;;;5082157;28;20036;-77
2022/12/05 00:56:15;;;;;;;8.37;4.30;;;;;;;;;;5092215;28;20023;-76
2022/12/05 01:01:44;;;;;;;6.50;4.03;;;;;;;;;;5091947;28;20047;-77
2022/12/05 01:04:11;;;;;;;5.80;3.93;;;;;;;;;;5092304;28;20019;-78
2022/12/05 01:06:36;;;;;;;7.80;4.57;;;;;;;;;;5092442;28;20020;-77
2022/12/05 01:09:02;;;;;;;8.37;4.50;;;;;;;;;;5092022;28;20548;-76
2022/12/05 01:11:28;;;;;;;16.00;4.50;;;;;;;;;;5092346;28;20024;-76
2022/12/05 01:13:54;;;;;;;16.77;5.43;;;;;;;;;;5092366;28;20043;-77
2022/12/05 01:16:23;;;;;;;21.70;5.13;;;;;;;;;;5107954;28;20047;-78
2022/12/05 01:18:49;;;;;;;11.93;5.70;;;;;;;;;;5092846;28;20381;-76
2022/12/05 01:21:14;;;;;;;10.57;5.53;;;;;;;;;;5108148;28;20024;-77
2022/12/05 01:23:40;;;;;;;9.17;4.40;;;;;;;;;;5092372;28;20404;-78
2022/12/05 01:26:09;;;;;;;6.53;4.27;;;;;;;;;;5107967;28;20020;-77
2022/12/05 01:28:35;;;;;;;11.03;5.33;;;;;;;;;;5092409;28;20091;-77
2022/12/05 01:31:08;;;;;;;10.60;5.07;;;;;;;;;;5091771;28;20047;-79
2022/12/05 01:33:34;;;;;;;8.77;4.37;;;;;;;;;;5108206;28;20501;-79
2022/12/05 01:36:00;;;;;;;58.33;6.00;;;;;;;;;;5107910;28;20023;-78
2022/12/05 01:38:25;;;;;;;34.00;5.67;;;;;;;;;;5107779;28;20366;-75
2022/12/05 01:41:04;;;;;;;14.87;5.27;;;;;;;;;;5092454;28;20050;-77
2022/12/05 01:43:29;;;;;;;112.60;8.13;;;;;;;;;;5091797;28;20024;-78
2022/12/05 01:45:55;;;;;;;14.00;5.37;;;;;;;;;;5090852;28;20484;-78
2022/12/05 01:48:26;;;;;;;48.23;5.77;;;;;;;;;;5107922;28;20020;-75
2022/12/05 01:50:52;;;;;;;37.37;6.23;;;;;;;;;;5092333;28;20421;-78
2022/12/05 01:53:18;;;;;;;27.23;6.67;;;;;;;;;;5109034;28;20154;-77
2022/12/05 01:55:44;;;;;;;13.97;4.97;;;;;;;;;;5096281;28;20016;-79
2022/12/05 01:58:10;;;;;;;8.33;4.30;;;;;;;;;;5112601;28;20489;-76
2022/12/05 02:00:35;;;;;;;9.03;4.87;;;;;;;;;;5096566;28;20047;-77
2022/12/05 02:03:05;;;;;;;7.77;4.90;;;;;;;;;;5111985;28;20024;-78
2022/12/05 02:05:32;;;;;;;8.80;4.77;;;;;;;;;;5112276;28;20457;-77
2022/12/05 02:07:58;;;;;;;7.97;4.93;;;;;;;;;;5096003;28;20468;-78
2022/12/05 02:10:24;;;;;;;8.00;4.67;;;;;;;;;;5112376;28;20016;-77
2022/12/05 02:12:50;;;;;;;7.10;3.83;;;;;;;;;;5112407;28;20077;-78
2022/12/05 02:15:33;;;;;;;5.77;4.07;;;;;;;;;;5095000;28;20095;-78
2022/12/05 02:18:01;;;;;;;6.07;3.93;;;;;;;;;;5096508;28;20077;-77
2022/12/05 02:20:45;;;;;;;5.83;3.67;;;;;;;;;;5095541;28;20015;-77
2022/12/05 02:23:11;;;;;;;6.03;3.80;;;;;;;;;;5110706;28;20017;-76
2022/12/05 02:25:51;;;;;;;8.23;4.50;;;;;;;;;;5097633;28;20024;-77
2022/12/05 02:28:27;;;;;;;8.60;4.27;;;;;;;;;;5118358;28;20044;-75
2022/12/05 02:31:00;;;;;;;6.90;3.93;;;;;;;;;;5132954;28;20012;-76
2022/12/05 02:33:35;;;;;;;6.00;3.97;;;;;;;;;;5105895;28;20411;-77
2022/12/05 02:36:08;;;;;;;5.25;3.30;;;;;;;;;;5096205;28;20476;-78
2022/12/05 02:38:39;;;;;;;6.93;4.10;;;;;;;;;;5096054;28;20020;-78
2022/12/05 02:41:23;;;;;;;7.20;4.37;;;;;;;;;;5111885;28;20074;-78
2022/12/05 02:43:55;;;;;;;6.37;4.27;;;;;;;;;;5096278;28;20031;-78
2022/12/05 02:46:21;;;;;;;6.60;4.23;;;;;;;;;;5095525;28;20035;-79
2022/12/05 02:48:53;;;;;;;7.77;3.83;;;;;;;;;;5111400;28;20016;-79
2022/12/05 02:51:20;;;;;;;7.43;4.00;;;;;;;;;;5110757;28;20059;-77
2022/12/05 02:53:47;;;;;;;6.43;4.30;;;;;;;;;;5095054;28;20426;-79
2022/12/05 02:56:13;;;;;;;7.47;4.03;;;;;;;;;;5110275;28;20069;-79
2022/12/05 02:58:43;;;;;;;7.33;4.10;;;;;;;;;;5109958;28;20181;-78
2022/12/05 03:01:08;;;;;;;6.17;4.07;;;;;;;;;;5094000;28;20120;-76
2022/12/05 03:03:34;;;;;;;7.80;4.27;;;;;;;;;;5094931;28;20469;-78
2022/12/05 03:06:02;;;;;;;5.87;4.10;;;;;;;;;;5095214;28;20069;-78
2022/12/05 03:08:31;;;;;;;6.47;3.80;;;;;;;;;;5095003;28;20120;-75
2022/12/05 03:10:57;;;;;;;5.87;3.90;;;;;;;;;;5094677;28;20024;-75
2022/12/05 03:13:26;;;;;;;6.70;3.80;;;;;;;;;;5110827;28;20028;-75
2022/12/05 03:15:56;;;;;;;7.93;4.13;;;;;;;;;;5112133;28;20031;-77
2022/12/05 03:18:30;;;;;;;6.50;4.20;;;;;;;;;;5112508;28;20077;-78
2022/12/05 03:20:58;;;;;;;5.70;3.73;;;;;;;;;;5110597;28;20431;-75
2022/12/05 03:23:33;;;;;;;8.27;4.83;;;;;;;;;;5094537;28;20020;-78
2022/12/05 03:26:19;;;;;;;9.90;4.40;;;;;;;;;;5110762;28;20035;-77
2022/12/05 03:28:53;;;;;;;7.27;4.10;;;;;;;;;;5094833;28;20032;-78
2022/12/05 03:31:42;;;;;;;6.70;4.13;;;;;;;;;;5110560;28;20460;-78
2022/12/05 03:34:11;;;;;;;6.70;4.33;;;;;;;;;;5083108;28;20039;-76
2022/12/05 03:36:40;;;;;;;6.20;4.17;;;;;;;;;;5094525;28;20029;-77
2022/12/05 03:39:21;;;;;;;6.80;4.73;;;;;;;;;;5109960;28;20042;-76
2022/12/05 03:41:55;;;;;;;7.20;3.90;;;;;;;;;;5109957;28;20499;-77
2022/12/05 03:44:29;;;;;;;8.33;4.63;;;;;;;;;;5109518;28;20024;-76
2022/12/05 03:47:09;;;;;;;8.30;5.10;;;;;;;;;;5109763;28;20069;-77
2022/12/05 03:49:43;;;;;;;7.03;4.00;;;;;;;;;;5092478;28;20035;-74
2022/12/05 03:52:12;;;;;;;5.72;3.53;;;;;;;;;;5094349;28;20050;-74
2022/12/05 03:54:42;;;;;;;9.60;5.10;;;;;;;;;;5095304;28;20028;-75
2022/12/05 03:57:14;;;;;;;7.10;4.47;;;;;;;;;;5109949;28;20115;-78
2022/12/05 03:59:50;;;;;;;7.57;4.63;;;;;;;;;;5094767;28;20101;-78
2022/12/05 04:02:20;;;;;;;8.23;5.00;;;;;;;;;;5093380;28;20040;-78
2022/12/05 04:04:49;;;;;;;8.27;4.87;;;;;;;;;;5094711;28;20020;-79
2022/12/05 04:07:15;;;;;;;8.63;4.70;;;;;;;;;;5109017;28;20074;-76
2022/12/05 04:09:43;;;;;;;7.37;4.17;;;;;;;;;;5109893;28;20531;-76
2022/12/05 04:12:13;;;;;;;7.80;4.40;;;;;;;;;;5094653;28;20480;-78
2022/12/05 04:14:40;;;;;;;10.83;5.37;;;;;;;;;;5093720;28;20492;-76
2022/12/05 04:17:08;;;;;;;8.83;4.97;;;;;;;;;;5108973;28;20016;-78
2022/12/05 04:22:28;;;;;;;8.30;4.93;;;;;;;;;;5093859;28;20495;-77
2022/12/05 04:27:38;;;;;;;8.13;4.93;;;;;;;;;;5093526;28;20049;-78
2022/12/05 04:30:03;;;;;;;6.53;4.00;;;;;;;;;;5108428;28;20453;-77
2022/12/05 04:32:32;;;;;;;9.10;5.17;;;;;;;;;;5108484;28;20400;-78
2022/12/05 04:35:00;;;;;;;7.13;4.30;;;;;;;;;;5093783;28;20009;-79
2022/12/05 04:37:29;;;;;;;8.63;4.30;;;;;;;;;;5094108;28;20059;-76
2022/12/05 04:40:01;;;;;;;8.30;4.23;;;;;;;;;;5092844;28;20024;-77
2022/12/05 04:42:28;;;;;;;7.30;4.30;;;;;;;;;;5093864;28;20016;-75
2022/12/05 04:44:56;;;;;;;10.03;4.70;;;;;;;;;;5094183;28;20028;-78
2022/12/05 04:47:25;;;;;;;6.32;3.88;;;;;;;;;;5111172;28;20020;-77
2022/12/05 04:49:52;;;;;;;5.97;3.83;;;;;;;;;;5094746;28;20034;-76
2022/12/05 04:52:18;;;;;;;7.30;3.87;;;;;;;;;;5109269;28;20081;-77
2022/12/05 04:54:53;;;;;;;5.80;3.80;;;;;;;;;;5093871;28;20020;-73
2022/12/05 04:57:28;;;;;;;6.50;4.30;;;;;;;;;;5091873;28;20141;-77
2022/12/05 04:59:53;;;;;;;9.23;4.88;;;;;;;;;;5092652;28;20532;-77
2022/12/05 05:02:23;;;;;;;6.07;3.67;;;;;;;;;;5092296;28;20091;-76
2022/12/05 05:04:50;;;;;;;6.53;4.27;;;;;;;;;;5091951;28;20024;-75
2022/12/05 05:07:15;;;;;;;6.40;4.10;;;;;;;;;;5092218;28;20031;-77
2022/12/05 05:09:41;;;;;;;7.13;3.88;;;;;;;;;;5092278;28;20068;-76
2022/12/05 05:12:07;;;;;;;7.90;4.90;;;;;;;;;;5108017;28;20046;-76
2022/12/05 05:14:32;;;;;;;7.32;4.25;;;;;;;;;;5092150;28;20059;-76
2022/12/05 05:16:58;;;;;;;7.40;4.63;;;;;;;;;;5092433;28;20055;-76
2022/12/05 05:19:23;;;;;;;7.20;4.00;;;;;;;;;;5092013;28;20365;-76
2022/12/05 05:21:49;;;;;;;7.35;3.95;;;;;;;;;;5092221;28;20027;-76
2022/12/05 05:24:15;;;;;;;5.60;3.38;;;;;;;;;;5092470;28;20479;-77
2022/12/05 05:26:42;;;;;;;5.77;3.60;;;;;;;;;;5092261;28;20047;-76
2022/12/05 05:29:08;;;;;;;6.90;3.47;;;;;;;;;;5096264;28;20103;-78
2022/12/05 05:31:34;;;;;;;10.40;3.92;;;;;;;;;;5095707;28;20165;-76
2022/12/05 05:33:59;;;;;;;8.00;4.15;;;;;;;;;;5096093;28;20027;-76
2022/12/05 05:36:25;;;;;;;7.33;4.70;;;;;;;;;;5096038;28;20023;-78
2022/12/05 05:38:55;;;;;;;6.78;3.97;;;;;;;;;;5095773;28;20020;-76
2022/12/05 05:41:22;;;;;;;6.90;3.83;;;;;;;;;;5096476;28;20016;-77
2022/12/05 05:43:48;;;;;;;6.63;3.80;;;;;;;;;;5111855;28;20020;-77
2022/12/05 05:46:14;;;;;;;6.88;3.92;;;;;;;;;;5096496;28;20047;-77
2022/12/05 05:48:39;;;;;;;6.88;3.63;;;;;;;;;;5111473;28;20039;-77
2022/12/05 05:51:06;;;;;;;5.78;3.80;;;;;;;;;;5095917;28;20020;-76
2022/12/05 05:53:31;;;;;;;7.75;3.40;;;;;;;;;;5096088;28;20028;-76
2022/12/05 05:56:00;;;;;;;8.68;3.70;;;;;;;;;;5113280;28;20030;-77
2022/12/05 05:58:26;;;;;;;9.77;4.10;;;;;;;;;;5116097;28;20084;-77
2022/12/05 06:00:51;;;;;;;11.38;4.45;;;;;;;;;;5131178;28;20510;-77
2022/12/05 06:03:16;;;;;;;7.13;3.65;;;;;;;;;;5096912;28;20070;-78
2022/12/05 06:05:42;;;;;;;6.43;3.42;;;;;;;;;;5096807;28;20051;-80
2022/12/05 06:08:07;;;;;;;5.63;3.78;;;;;;;;;;5111755;28;20020;-79
2022/12/05 06:10:34;;;;;;;5.20;3.65;;;;;;;;;;5096687;28;20094;-79
2022/12/05 06:12:59;;;;;;;9.97;3.87;;;;;;;;;;5097411;28;20075;-78
2022/12/05 06:15:24;;;;;;;6.22;3.70;;;;;;;;;;5112056;28;20529;-77
2022/12/05 06:17:50;;;;;;;8.15;4.93;;;;;;;;;;5095565;28;20016;-78
2022/12/05 06:20:15;;;;;;;7.18;4.00;;;;;;;;;;5096191;28;20528;-78
2022/12/05 06:22:41;;;;;;;7.07;4.50;;;;;;;;;;5095278;28;20432;-79
2022/12/05 06:25:06;;;;;;;5.20;3.55;;;;;;;;;;5111076;28;20123;-78
2022/12/05 06:27:32;;;;;;;5.97;4.53;;;;;;;;;;5095345;28;20068;-81
2022/12/05 06:29:57;;;;;;;6.57;3.92;;;;;;;;;;5110765;28;20368;-78
2022/12/05 06:32:23;;;;;;;8.02;4.18;;;;;;;;;;5095173;28;20028;-80
2022/12/05 06:34:48;;;;;;;6.35;4.00;;;;;;;;;;5111313;28;20154;-77
2022/12/05 06:37:13;;;;;;;8.73;4.82;;;;;;;;;;5112613;28;20020;-79
2022/12/05 06:39:39;;;;;;;6.90;4.03;;;;;;;;;;5095908;28;20020;-81
2022/12/05 06:42:04;;;;;;;8.17;4.17;;;;;;;;;;5113141;28;20099;-78
2022/12/05 06:44:30;;;;;;;7.20;3.83;;;;;;;;;;5097905;28;20069;-78
2022/12/05 06:46:55;;;;;;;6.30;4.33;;;;;;;;;;5112880;28;20052;-76
2022/12/05 06:49:24;;;;;;;7.32;4.63;;;;;;;;;;5097068;28;20039;-78
2022/12/05 06:51:50;;;;;;;7.82;4.10;;;;;;;;;;5095922;28;20423;-79
2022/12/05 06:54:15;;;;;;;7.55;4.15;;;;;;;;;;5098280;28;20073;-81
2022/12/05 06:56:41;;;;;;;7.72;4.20;;;;;;;;;;5099505;28;20353;-79
2022/12/05 06:59:06;;;;;;;6.53;4.15;;;;;;;;;;5112444;28;20024;-78
2022/12/05 07:01:37;;;;;;;6.45;4.00;;;;;;;;;;5110747;28;20055;-79
2022/12/05 07:04:08;;;;;;;6.10;4.40;;;;;;;;;;5103236;28;20063;-79
2022/12/05 07:06:34;;;;;;;7.77;3.93;;;;;;;;;;5096925;28;20026;-81
2022/12/05 07:09:00;;;;;;;10.07;4.32;;;;;;;;;;5095800;28;20020;-80
2022/12/05 07:11:26;;;;;;;9.13;4.00;;;;;;;;;;5095579;28;20028;-80
2022/12/05 07:13:51;;;;;;;7.70;3.63;;;;;;;;;;5112393;28;20089;-80
2022/12/05 07:16:17;;;;;;;10.90;3.92;;;;;;;;;;5094880;28;20430;-81
2022/12/05 07:18:42;;;;;;;10.10;4.55;;;;;;;;;;5095739;28;20431;-76
2022/12/05 07:21:09;;;;;;;8.20;4.13;;;;;;;;;;5112072;28;20632;-81
2022/12/05 07:23:35;;;;;;;12.55;5.10;;;;;;;;;;5096670;28;20412;-79
2022/12/05 07:26:05;;;;;;;11.10;4.22;;;;;;;;;;5097436;28;20020;-82
2022/12/05 07:28:30;;;;;;;7.72;3.38;;;;;;;;;;5096233;28;20481;-80
2022/12/05 07:31:00;;;;;;;10.15;4.43;;;;;;;;;;5095803;28;20028;-81
2022/12/05 07:33:25;;;;;;;12.32;4.50;;;;;;;;;;5111438;28;20063;-81
2022/12/05 07:35:50;;;;;;;13.52;4.43;;;;;;;;;;5095540;28;20023;-78
2022/12/05 07:38:16;;;;;;;10.27;3.85;;;;;;;;;;5111212;28;20020;-81
2022/12/05 07:40:41;;;;;;;9.65;3.65;;;;;;;;;;5094970;28;20020;-80
2022/12/05 07:43:06;;;;;;;13.93;4.70;;;;;;;;;;5098001;28;20050;-80
2022/12/05 07:45:33;;;;;;;17.67;5.05;;;;;;;;;;5112348;28;20066;-79
2022/12/05 07:47:58;;;;;;;16.48;5.90;;;;;;;;;;5109524;28;20024;-79
2022/12/05 07:50:24;;;;;;;16.35;4.13;;;;;;;;;;5095636;28;20012;-81
2022/12/05 07:52:49;;;;;;;11.95;3.78;;;;;;;;;;5113817;28;20040;-80
2022/12/05 07:55:15;;;;;;;9.10;4.03;;;;;;;;;;5114942;28;20052;-81
2022/12/05 07:57:40;;;;;;;7.93;3.13;;;;;;;;;;5114045;28;20020;-80
2022/12/05 08:00:06;;;;;;;8.13;3.85;;;;;;;;;;5112144;28;20048;-81
2022/12/05 08:02:32;;;;;;;7.10;4.00;;;;;;;;;;5096394;28;20024;-80
2022/12/05 08:04:57;;;;;;;15.60;4.85;;;;;;;;;;5111914;28;20562;-81
2022/12/05 08:07:23;;;;;;;12.60;6.53;;;;;;;;;;5095919;28;20101;-77
2022/12/05 08:09:52;;;;;;;6.82;4.22;;;;;;;;;;5098495;28;20020;-83
2022/12/05 08:12:17;;;;;;;8.57;4.32;;;;;;;;;;5098456;28;20055;-81
2022/12/05 08:14:43;;;;;;;8.05;4.43;;;;;;;;;;5097660;28;20016;-79
2022/12/05 08:17:09;;;;;;;11.88;4.65;;;;;;;;;;5092495;28;20476;-81
2022/12/05 08:19:34;;;;;;;5.45;3.55;;;;;;;;;;5093642;28;20047;-80
2022/12/05 08:21:59;;;;;;;7.25;3.75;;;;;;;;;;5109002;28;20016;-80
2022/12/05 08:24:25;;;;;;;6.05;3.58;;;;;;;;;;5094165;28;20064;-80
2022/12/05 08:26:50;;;;;;;9.15;3.90;;;;;;;;;;5108913;28;20016;-81
2022/12/05 08:29:18;;;;;;;8.20;4.22;;;;;;;;;;5094923;28;20456;-81
2022/12/05 08:31:46;;;;;;;9.95;4.25;;;;;;;;;;5093741;28;20020;-83
2022/12/05 08:34:12;;;;;;;13.43;7.85;;;;;;;;;;5095268;28;20019;-78
2022/12/05 08:36:37;;;;;;;7.60;4.43;;;;;;;;;;5110538;28;20491;-81
2022/12/05 08:39:04;;;;;;;8.82;4.40;;;;;;;;;;5108265;28;20064;-80
2022/12/05 08:41:29;;;;;;;7.88;4.10;;;;;;;;;;5109044;28;20031;-80
2022/12/05 08:43:56;;;;;;;6.30;3.58;;;;;;;;;;5094362;28;20020;-80
2022/12/05 08:46:21;;;;;;;9.65;3.97;;;;;;;;;;5108960;28;20043;-81
2022/12/05 08:48:46;;;;;;;10.65;4.65;;;;;;;;;;5094357;28;20031;-79
2022/12/05 08:51:12;;;;;;;13.30;4.60;;;;;;;;;;5109064;28;20077;-80
2022/12/05 08:53:39;;;;;;;11.30;4.85;;;;;;;;;;5093053;28;20031;-79
2022/12/05 08:56:05;;;;;;;12.02;4.50;;;;;;;;;;5093240;28;20098;-80
2022/12/05 08:58:31;;;;;;;7.93;4.35;;;;;;;;;;5093641;28;20026;-81
2022/12/05 09:01:10;;;;;;;8.75;4.38;;;;;;;;;;5092587;28;20052;-69
2022/12/05 09:03:37;;;;;;;12.82;4.95;;;;;;;;;;5093018;28;20012;-80
2022/12/05 09:06:06;;;;;;;7.72;4.40;;;;;;;;;;5110335;28;20020;-80
2022/12/05 09:08:32;;;;;;;9.43;4.43;;;;;;;;;;5092605;28;20465;-80
2022/12/05 09:10:57;;;;;;;13.88;4.55;;;;;;;;;;5108499;28;20021;-79
2022/12/05 09:13:23;;;;;;;18.33;4.20;;;;;;;;;;5092719;28;20038;-80
2022/12/05 09:15:48;;;;;;;15.02;4.30;;;;;;;;;;5108942;28;20016;-79
2022/12/05 09:18:14;;;;;;;6.43;4.10;;;;;;;;;;5092596;28;20483;-80
2022/12/05 09:20:40;;;;;;;5.93;3.78;;;;;;;;;;5109975;28;20016;-81
2022/12/05 09:23:06;;;;;;;10.50;3.70;;;;;;;;;;5092809;28;20027;-79
2022/12/05 09:25:31;;;;;;;9.35;4.30;;;;;;;;;;5110249;28;20092;-76
2022/12/05 09:27:56;;;;;;;6.03;3.53;;;;;;;;;;5107791;28;20054;-78
2022/12/05 09:30:22;;;;;;;8.40;3.53;;;;;;;;;;5108067;28;20028;-77
2022/12/05 09:32:47;;;;;;;4.78;3.20;;;;;;;;;;5105323;28;20036;-78
2022/12/05 09:35:13;;;;;;;5.68;3.00;;;;;;;;;;5095774;28;20020;-79
2022/12/05 09:37:38;;;;;;;6.40;3.65;;;;;;;;;;5093457;28;20032;-81
2022/12/05 09:40:04;;;;;;;7.07;3.08;;;;;;;;;;5093225;28;20023;-76
2022/12/05 09:42:36;;;;;;;9.20;3.55;;;;;;;;;;5092874;28;20035;-77
2022/12/05 09:45:04;;;;;;;6.95;3.75;;;;;;;;;;5092740;28;20020;-80
2022/12/05 09:47:44;;;;;;;9.38;3.30;;;;;;;;;;5092472;28;20069;-79
2022/12/05 09:50:29;;;;;;;7.47;4.50;;;;;;;;;;5108326;28;20035;-79
2022/12/05 09:52:57;;;;;;;14.50;3.78;;;;;;;;;;5092473;28;20028;-78
2022/12/05 09:55:23;;;;;;;7.63;4.30;;;;;;;;;;5092711;28;20021;-79
2022/12/05 09:57:50;;;;;;;16.83;4.43;;;;;;;;;;5107772;28;20032;-77
2022/12/05 10:00:16;;;;;;;16.65;5.47;;;;;;;;;;5092035;28;20052;-78
2022/12/05 10:03:01;;;;;;;17.05;5.05;;;;;;;;;;5091780;28;20099;-77
2022/12/05 10:05:39;;;;;;;17.23;8.13;;;;;;;;;;5107057;28;20053;-78
2022/12/05 10:08:20;;;;;;;11.00;5.20;;;;;;;;;;5107291;28;20115;-78
2022/12/05 10:11:00;;;;;;;10.77;4.78;;;;;;;;;;5091808;28;20024;-78
2022/12/05 10:13:25;;;;;;;21.13;4.97;;;;;;;;;;5091251;28;20028;-76
2022/12/05 10:15:52;;;;;;;11.38;4.65;;;;;;;;;;5094472;28;20213;-76
2022/12/05 10:18:27;;;;;;;15.05;5.03;;;;;;;;;;5094727;28;20020;-76
2022/12/05 10:21:04;;;;;;;16.65;4.97;;;;;;;;;;5096548;28;20019;-77
2022/12/05 10:23:35;;;;;;;12.18;4.15;;;;;;;;;;5096635;28;20035;-78
2022/12/05 10:26:03;;;;;;;10.30;4.70;;;;;;;;;;5095492;28;20133;-78
2022/12/05 10:28:35;;;;;;;13.18;4.97;;;;;;;;;;5110766;28;20016;-78
2022/12/05 10:31:03;;;;;;;11.02;5.18;;;;;;;;;;5095416;28;20036;-79
2022/12/05 10:33:32;;;;;;;11.25;4.70;;;;;;;;;;5094509;28;20040;-76
2022/12/05 10:35:57;;;;;;;12.90;4.80;;;;;;;;;;5094979;28;20012;-73
2022/12/05 10:38:24;;;;;;;15.90;5.25;;;;;;;;;;5094764;28;20368;-75
2022/12/05 10:40:51;;;;;;;18.40;5.43;;;;;;;;;;5094279;28;20028;-76
2022/12/05 10:43:22;;;;;;;13.13;5.40;;;;;;;;;;5093997;28;20430;-78
2022/12/05 10:45:48;;;;;;;18.05;5.47;;;;;;;;;;5110006;28;20115;-78
2022/12/05 10:48:14;;;;;;;9.73;4.07;;;;;;;;;;5094044;28;20043;-77
2022/12/05 10:50:41;;;;;;;12.23;6.55;;;;;;;;;;5110273;28;20031;-78
2022/12/05 10:53:06;;;;;;;27.08;11.85;;;;;;;;;;5093727;28;20061;-78
2022/12/05 10:55:38;;;;;;;29.40;10.20;;;;;;;;;;5094596;28;20107;-77
2022/12/05 10:58:09;;;;;;;13.77;5.30;;;;;;;;;;5092349;28;20020;-78
2022/12/05 11:00:36;;;;;;;10.27;5.05;;;;;;;;;;5093419;28;20048;-77
2022/12/05 11:03:04;;;;;;;10.95;4.10;;;;;;;;;;5093389;28;20449;-78
2022/12/05 11:05:30;;;;;;;14.43;4.97;;;;;;;;;;5109753;28;20303;-79
2022/12/05 11:07:57;;;;;;;19.35;5.40;;;;;;;;;;5094738;28;20019;-77
2022/12/05 11:10:30;;;;;;;17.98;5.95;;;;;;;;;;5093579;28;20034;-78
2022/12/05 11:12:57;;;;;;;13.13;5.60;;;;;;;;;;5109236;28;20177;-71
2022/12/05 11:15:24;;;;;;;10.95;3.95;;;;;;;;;;5109174;28;20016;-76
2022/12/05 11:17:50;;;;;;;8.70;3.80;;;;;;;;;;5109060;28;20023;-77
2022/12/05 11:20:18;;;;;;;16.67;5.00;;;;;;;;;;5093713;28;20059;-76
2022/12/05 11:23:07;;;;;;;12.73;4.28;;;;;;;;;;5093343;28;20031;-76
2022/12/05 11:25:33;;;;;;;14.13;4.68;;;;;;;;;;5092703;28;20016;-74
2022/12/05 11:28:00;;;;;;;12.68;4.88;;;;;;;;;;5093742;28;20153;-78
2022/12/05 11:30:27;;;;;;;9.25;3.75;;;;;;;;;;5093966;28;20024;-76
2022/12/05 11:33:19;;;;;;;11.18;4.72;;;;;;;;;;5093062;28;20043;-78
2022/12/05 11:35:46;;;;;;;10.77;4.53;;;;;;;;;;5091912;28;20127;-77
2022/12/05 11:38:11;;;;;;;7.55;3.25;;;;;;;;;;5109599;28;20107;-76
2022/12/05 11:40:49;;;;;;;7.57;3.70;;;;;;;;;;5093097;28;20441;-76
2022/12/05 11:43:27;;;;;;;8.65;4.47;;;;;;;;;;5092928;28;20036;-78
2022/12/05 11:46:24;;;;;;;14.50;3.90;;;;;;;;;;5093451;28;20024;-73
2022/12/05 11:48:50;;;;;;;10.40;4.28;;;;;;;;;;5069442;28;20031;-77
2022/12/05 11:51:24;;;;;;;10.07;3.60;;;;;;;;;;5093402;28;20538;-75
2022/12/05 11:54:07;;;;;;;14.32;4.50;;;;;;;;;;5092600;28;20066;-78
2022/12/05 11:56:41;;;;;;;12.27;4.00;;;;;;;;;;5092772;28;20056;-78
2022/12/05 11:59:09;;;;;;;8.20;3.90;;;;;;;;;;5109016;28;20118;-77
2022/12/05 12:01:45;;;;;;;8.23;3.83;;;;;;;;;;5107856;28;20419;-77
2022/12/05 12:04:29;;;;;;;9.73;4.57;;;;;;;;;;5092832;28;20020;-78
2022/12/05 12:07:19;;;;;;;12.47;4.77;;;;;;;;;;5092653;28;20103;-77
2022/12/05 12:10:03;;;;;;;10.48;4.93;;;;;;;;;;5092422;28;20343;-75
2022/12/05 12:12:43;;;;;;;12.23;4.35;;;;;;;;;;5092090;28;20028;-73
2022/12/05 12:15:20;;;;;;;9.40;4.60;;;;;;;;;;5107754;28;20016;-77
2022/12/05 12:17:53;;;;;;;11.13;4.75;;;;;;;;;;5108022;28;20020;-76
2022/12/05 12:20:18;;;;;;;14.93;4.07;;;;;;;;;;5108116;28;20087;-75
2022/12/05 12:23:02;;;;;;;7.38;3.47;;;;;;;;;;5092318;28;20480;-75
2022/12/05 12:25:37;;;;;;;13.38;4.68;;;;;;;;;;5108413;28;20050;-76
2022/12/05 12:28:06;;;;;;;14.40;3.92;;;;;;;;;;5108732;28;20055;-76
2022/12/05 12:30:43;;;;;;;9.25;3.97;;;;;;;;;;5092512;28;20020;-76
2022/12/05 12:33:27;;;;;;;9.60;3.80;;;;;;;;;;5092456;28;20028;-77
2022/12/05 12:35:56;;;;;;;16.88;4.18;;;;;;;;;;5092874;28;20027;-77
2022/12/05 12:38:46;;;;;;;10.73;4.70;;;;;;;;;;5107738;28;20024;-76
2022/12/05 12:41:32;;;;;;;9.80;4.20;;;;;;;;;;5091168;28;20080;-77
2022/12/05 12:44:07;;;;;;;6.55;3.25;;;;;;;;;;5092727;28;20039;-75
2022/12/05 12:46:50;;;;;;;16.88;4.80;;;;;;;;;;5108020;28;20020;-77
2022/12/05 12:49:34;;;;;;;11.10;3.30;;;;;;;;;;5092278;28;20038;-77
2022/12/05 12:52:01;;;;;;;18.38;6.13;;;;;;;;;;5108228;28;20124;-76
2022/12/05 12:54:42;;;;;;;15.95;6.35;;;;;;;;;;5107616;28;20389;-74
2022/12/05 12:57:14;;;;;;;14.30;3.70;;;;;;;;;;5110798;28;20024;-76
2022/12/05 12:59:58;;;;;;;15.00;4.80;;;;;;;;;;5101908;28;20063;-75
2022/12/05 13:02:30;;;;;;;12.48;4.13;;;;;;;;;;5105685;28;20079;-74
2022/12/05 13:04:58;;;;;;;9.00;3.45;;;;;;;;;;5113419;28;20028;-75
2022/12/05 13:07:42;;;;;;;10.02;4.22;;;;;;;;;;5108889;28;20016;-74
2022/12/05 13:10:12;;;;;;;10.98;3.83;;;;;;;;;;5092420;28;20058;-75
2022/12/05 13:12:38;;;;;;;9.13;4.05;;;;;;;;;;5108348;28;20061;-76
2022/12/05 13:15:06;;;;;;;16.50;4.78;;;;;;;;;;5107332;28;20027;-75
2022/12/05 13:17:32;;;;;;;11.25;4.20;;;;;;;;;;5092047;28;20457;-75
2022/12/05 13:19:58;;;;;;;13.93;4.97;;;;;;;;;;5107881;28;20065;-76
2022/12/05 13:22:24;;;;;;;20.45;4.47;;;;;;;;;;5091959;28;20024;-73
2022/12/05 13:24:50;;;;;;;11.10;4.50;;;;;;;;;;5107429;28;20016;-76
2022/12/05 13:27:26;;;;;;;10.55;4.22;;;;;;;;;;5091955;28;20048;-75
2022/12/05 13:29:56;;;;;;;11.23;4.30;;;;;;;;;;5107044;28;20019;-76
2022/12/05 13:32:27;;;;;;;8.90;3.38;;;;;;;;;;5107240;28;20032;-76
2022/12/05 13:34:54;;;;;;;10.93;3.63;;;;;;;;;;5091746;28;20449;-75
2022/12/05 13:43:02;;;;;;;9.43;4.60;;;;;;;;;;5090755;28;20484;-75
2022/12/05 13:45:27;;;;;;;9.65;3.22;;;;;;;;;;5106441;28;20102;-77
2022/12/05 13:47:59;;;;;;;4.80;2.63;;;;;;;;;;5106886;28;20016;-77
2022/12/05 13:50:35;;;;;;;8.63;3.67;;;;;;;;;;5110916;28;20158;-73
2022/12/05 13:53:19;;;;;;;7.63;2.42;;;;;;;;;;5094942;28;20111;-75
2022/12/05 13:55:58;;;;;;;5.40;2.67;;;;;;;;;;5095521;28;20024;-75
2022/12/05 13:58:23;;;;;;;4.97;3.08;;;;;;;;;;5110671;28;20494;-74
2022/12/05 14:00:50;;;;;;;4.95;2.35;;;;;;;;;;5110069;28;20142;-75
2022/12/05 14:03:33;;;;;;;10.20;3.03;;;;;;;;;;5094896;28;20495;-75
2022/12/05 14:05:59;;;;;;;5.28;2.70;;;;;;;;;;5094857;28;20024;-73
2022/12/05 14:08:30;;;;;;;6.45;2.67;;;;;;;;;;5094951;28;20092;-74
2022/12/05 14:10:56;;;;;;;6.05;2.95;;;;;;;;;;5094888;28;20427;-72
2022/12/05 14:13:22;;;;;;;10.65;3.28;;;;;;;;;;5109850;28;20028;-75
2022/12/05 14:15:51;;;;;;;9.02;3.03;;;;;;;;;;5094866;28;20097;-76
2022/12/05 14:18:35;;;;;;;4.40;3.00;;;;;;;;;;5110671;28;20070;-75
2022/12/05 14:21:06;;;;;;;5.05;2.72;;;;;;;;;;5094342;28;20488;-74
2022/12/05 14:23:44;;;;;;;6.90;2.58;;;;;;;;;;5094584;28;20020;-76
2022/12/05 14:26:15;;;;;;;9.25;3.13;;;;;;;;;;5110465;28;20031;-77
2022/12/05 14:28:47;;;;;;;7.97;2.70;;;;;;;;;;5110125;28;20020;-75
2022/12/05 14:31:23;;;;;;;5.40;2.40;;;;;;;;;;5109991;28;20068;-75
2022/12/05 14:34:08;;;;;;;8.38;2.30;;;;;;;;;;5110357;28;20040;-74
2022/12/05 14:36:33;;;;;;;7.75;2.78;;;;;;;;;;5110038;28;20423;-75
2022/12/05 14:38:58;;;;;;;3.88;2.30;;;;;;;;;;5092725;28;20039;-75
2022/12/05 14:41:34;;;;;;;6.47;2.65;;;;;;;;;;5094367;28;20012;-76
2022/12/05 14:44:00;;;;;;;5.95;3.00;;;;;;;;;;5110349;28;20039;-75
2022/12/05 14:46:29;;;;;;;5.05;2.70;;;;;;;;;;5094561;28;20166;-75
2022/12/05 14:48:55;;;;;;;6.72;3.55;;;;;;;;;;5110472;28;20039;-75
2022/12/05 14:51:29;;;;;;;11.38;2.80;;;;;;;;;;5094485;28;20020;-77
2022/12/05 14:54:15;;;;;;;6.55;2.30;;;;;;;;;;5093940;28;20046;-76
2022/12/05 14:56:42;;;;;;;7.97;2.70;;;;;;;;;;5092086;28;20035;-76
2022/12/05 14:59:26;;;;;;;6.57;2.97;;;;;;;;;;5094131;28;20053;-76
2022/12/05 15:01:57;;;;;;;6.22;2.67;;;;;;;;;;5093414;28;20044;-78
2022/12/05 15:04:22;;;;;;;6.78;2.67;;;;;;;;;;5095118;28;20091;-76
2022/12/05 15:06:48;;;;;;;4.40;3.03;;;;;;;;;;5109975;28;20081;-76